Terminal Aerodrome Forecast
Issued by NWS

Home | Current Version | Previous Version | Text Only | Print | Product List | Glossary On
Versions: 1 2 3 4 5 6 7 8 9 10 11 12 13 14 15 16 17
900
FTUS41 KILN 052338
TAFLCK
TAF
KLCK 052338Z 0600/0624 18005KT P6SM SCT050 BKN250
     FM061600 23008KT P6SM SCT070
     FM062200 20003KT P6SM SKC=

USA.gov is the U.S. government's official web portal to all federal, state and local government web resources and services.